Time;durP1;ratioP1;P1;durP2;ratioP2;P2;SDS_P1;SDS_P2;PMS_P1;PMS_P2;Temp;Humidity;BMP_temperature;BMP_pressure;BME280_temperature;BME280_humidity;BME280_pressure;Samples;Min_cycle;Max_cycle;Signal;HPM_P1;HPM_P2
2022/05/09 00:00:16;;;;;;;15.48;6.82;;;16.70;69.20;;;;;;5092473;28;20035;-78
2022/05/09 00:02:41;;;;;;;9.63;6.18;;;16.60;69.30;;;;;;5084075;28;20122;-78
2022/05/09 00:05:09;;;;;;;12.18;7.22;;;16.60;69.50;;;;;;5112540;28;20665;-79
2022/05/09 00:07:35;;;;;;;9.65;6.25;;;16.60;69.40;;;;;;5092711;28;20115;-79
2022/05/09 00:10:01;;;;;;;10.65;6.30;;;16.50;69.40;;;;;;5073217;28;20110;-78
2022/05/09 00:12:27;;;;;;;10.65;7.03;;;16.50;69.50;;;;;;5088552;28;20067;-78
2022/05/09 00:14:52;;;;;;;10.48;6.30;;;16.50;69.60;;;;;;5076405;28;20036;-78
2022/05/09 00:17:18;;;;;;;13.65;6.90;;;16.50;69.50;;;;;;5093332;28;20032;-79
2022/05/09 00:19:44;;;;;;;8.05;6.03;;;16.30;69.80;;;;;;5091681;28;20054;-77
2022/05/09 00:22:10;;;;;;;12.80;7.35;;;16.30;70.10;;;;;;5093253;28;20411;-78
2022/05/09 00:24:36;;;;;;;11.75;7.00;;;16.30;70.30;;;;;;5076066;28;20033;-78
2022/05/09 00:27:02;;;;;;;13.05;7.40;;;16.30;70.20;;;;;;5073285;28;20073;-78
2022/05/09 00:29:28;;;;;;;16.45;7.55;;;16.20;70.60;;;;;;5072832;28;20032;-78
2022/05/09 00:31:58;;;;;;;11.30;7.22;;;16.20;70.80;;;;;;5073223;28;20078;-78
2022/05/09 00:34:24;;;;;;;12.40;7.25;;;16.20;70.60;;;;;;5073403;28;20103;-78
2022/05/09 00:36:55;;;;;;;12.73;7.68;;;16.20;70.60;;;;;;5072721;28;20039;-78
2022/05/09 00:39:23;;;;;;;9.55;7.10;;;16.20;70.60;;;;;;5081453;28;20040;-78
2022/05/09 00:41:49;;;;;;;12.35;7.70;;;16.20;70.50;;;;;;5093197;28;20841;-78
2022/05/09 00:44:22;;;;;;;14.55;8.13;;;16.20;70.60;;;;;;5076691;28;20048;-78
2022/05/09 00:46:51;;;;;;;10.63;7.43;;;16.20;70.50;;;;;;5072835;28;20114;-78
2022/05/09 00:49:32;;;;;;;13.38;7.68;;;16.10;70.60;;;;;;5072781;28;20020;-78
2022/05/09 00:52:10;;;;;;;12.85;7.53;;;16.10;70.70;;;;;;5080483;28;20028;-78
2022/05/09 00:54:47;;;;;;;12.27;8.30;;;16.20;70.60;;;;;;5093020;28;20054;-80
2022/05/09 00:57:41;;;;;;;13.70;8.23;;;16.10;71.10;;;;;;5087803;28;20038;-78
2022/05/09 01:00:15;;;;;;;12.50;7.90;;;16.10;70.90;;;;;;5072487;28;20029;-78
2022/05/09 01:02:46;;;;;;;14.43;7.85;;;16.00;71.20;;;;;;5075362;28;20717;-78
2022/05/09 01:05:13;;;;;;;14.00;8.68;;;16.00;71.10;;;;;;5095019;28;20047;-78
2022/05/09 01:07:39;;;;;;;14.18;9.43;;;16.00;71.00;;;;;;5087036;28;20075;-78
2022/05/09 01:10:07;;;;;;;11.45;7.38;;;16.00;70.90;;;;;;5075109;28;20028;-78
2022/05/09 01:12:36;;;;;;;17.48;9.38;;;16.00;71.00;;;;;;5074991;28;20115;-78
2022/05/09 01:15:07;;;;;;;12.68;7.72;;;16.00;71.00;;;;;;5091060;28;20089;-78
2022/05/09 01:17:39;;;;;;;15.82;8.65;;;15.90;70.90;;;;;;5096742;28;20433;-78
2022/05/09 01:20:11;;;;;;;16.60;9.20;;;15.90;71.40;;;;;;5095243;28;20044;-78
2022/05/09 01:22:39;;;;;;;13.40;8.90;;;15.90;71.30;;;;;;5096342;28;20064;-78
2022/05/09 01:25:08;;;;;;;14.30;8.65;;;15.90;71.10;;;;;;5088157;28;20579;-78
2022/05/09 01:27:37;;;;;;;11.52;7.50;;;15.90;71.30;;;;;;5092618;28;20024;-78
2022/05/09 01:30:14;;;;;;;15.32;7.97;;;15.80;71.20;;;;;;5075961;28;20533;-78
2022/05/09 01:32:43;;;;;;;13.25;8.57;;;15.90;71.10;;;;;;5076193;28;20029;-78
2022/05/09 01:35:21;;;;;;;15.23;7.77;;;15.80;71.00;;;;;;5074678;28;20032;-78
2022/05/09 01:37:59;;;;;;;11.00;7.95;;;15.80;70.90;;;;;;5074336;28;20035;-78
2022/05/09 01:40:25;;;;;;;13.82;8.38;;;15.80;70.90;;;;;;5075903;28;20058;-78
2022/05/09 01:42:53;;;;;;;11.95;7.30;;;15.70;71.30;;;;;;5075431;28;20746;-80
2022/05/09 01:45:19;;;;;;;12.15;7.85;;;15.70;71.10;;;;;;5075865;28;20070;-78
2022/05/09 01:50:29;;;;;;;12.63;8.75;;;15.60;71.30;;;;;;5076109;28;20453;-79
2022/05/09 01:52:55;;;;;;;17.70;9.05;;;15.60;71.40;;;;;;5090897;28;20033;-78
2022/05/09 01:55:21;;;;;;;12.15;7.85;;;15.60;71.40;;;;;;5075544;28;20040;-78
2022/05/09 01:57:49;;;;;;;16.25;8.82;;;15.50;71.40;;;;;;5074301;28;20608;-78
2022/05/09 02:00:16;;;;;;;17.63;9.68;;;15.50;71.70;;;;;;5075442;28;20163;-78
2022/05/09 02:02:42;;;;;;;11.95;7.82;;;15.40;71.50;;;;;;5074066;28;20402;-78
2022/05/09 02:05:08;;;;;;;12.57;8.32;;;15.40;71.50;;;;;;5114357;28;20428;-78
2022/05/09 02:07:35;;;;;;;15.48;8.57;;;15.40;71.60;;;;;;5109347;28;20035;-78
2022/05/09 02:10:02;;;;;;;12.27;8.70;;;15.30;71.80;;;;;;5094190;28;20035;-78
2022/05/09 02:12:28;;;;;;;14.27;8.63;;;15.30;72.10;;;;;;5095237;28;20123;-78
2022/05/09 02:14:54;;;;;;;15.93;8.40;;;15.30;72.40;;;;;;5095394;28;20054;-78
2022/05/09 02:17:19;;;;;;;13.20;9.30;;;15.20;72.30;;;;;;5092435;28;20032;-78
2022/05/09 02:19:46;;;;;;;16.00;9.60;;;15.30;72.00;;;;;;5094063;28;20048;-79
2022/05/09 02:22:12;;;;;;;15.38;9.52;;;15.30;72.20;;;;;;5095279;28;20039;-78
2022/05/09 02:24:39;;;;;;;15.10;8.90;;;15.30;72.10;;;;;;5094233;28;20020;-79
2022/05/09 02:27:06;;;;;;;16.27;9.68;;;15.30;72.10;;;;;;5073648;28;20044;-79
2022/05/09 02:29:31;;;;;;;13.32;8.20;;;15.30;72.10;;;;;;5075024;28;20555;-79
2022/05/09 02:31:59;;;;;;;17.48;9.32;;;15.30;72.10;;;;;;5075051;28;20158;-78
2022/05/09 02:34:24;;;;;;;12.32;8.10;;;15.30;72.10;;;;;;5074855;28;20029;-79
2022/05/09 02:36:50;;;;;;;18.65;10.05;;;15.30;72.30;;;;;;5074851;28;20029;-79
2022/05/09 02:39:16;;;;;;;14.85;9.68;;;15.20;72.70;;;;;;5073197;28;20067;-79
2022/05/09 02:41:42;;;;;;;16.15;9.52;;;15.20;72.30;;;;;;5074724;28;20028;-79
2022/05/09 02:44:08;;;;;;;14.32;9.55;;;15.20;72.50;;;;;;5074700;28;20027;-78
2022/05/09 02:46:34;;;;;;;17.08;10.05;;;15.20;72.40;;;;;;5073490;28;20028;-78
2022/05/09 02:49:02;;;;;;;17.88;8.85;;;15.20;72.40;;;;;;5074506;28;20073;-78
2022/05/09 02:51:28;;;;;;;17.13;10.00;;;15.30;71.90;;;;;;5079318;28;20024;-78
2022/05/09 02:53:58;;;;;;;16.15;10.20;;;15.20;72.50;;;;;;5094766;28;20023;-78
2022/05/09 02:56:24;;;;;;;19.25;9.82;;;15.20;72.20;;;;;;5089259;28;20407;-79
2022/05/09 02:58:50;;;;;;;16.77;10.18;;;15.20;72.40;;;;;;5074414;28;20025;-79
2022/05/09 03:01:16;;;;;;;14.48;9.02;;;15.20;72.30;;;;;;5089994;28;20036;-79
2022/05/09 03:06:26;;;;;;;16.63;10.10;;;15.10;72.40;;;;;;5094807;28;20039;-79
2022/05/09 03:08:52;;;;;;;17.58;9.48;;;15.10;72.60;;;;;;5094389;28;20486;-79
2022/05/09 03:11:18;;;;;;;17.13;9.70;;;15.10;72.40;;;;;;5093096;28;20020;-78
2022/05/09 03:13:43;;;;;;;17.90;9.60;;;15.00;72.90;;;;;;5074334;28;20056;-78
2022/05/09 03:16:09;;;;;;;14.90;8.90;;;15.00;72.90;;;;;;5072697;28;20029;-78
2022/05/09 03:18:36;;;;;;;16.30;9.07;;;15.00;72.70;;;;;;5073986;28;20067;-78
2022/05/09 03:21:02;;;;;;;15.68;8.95;;;15.00;72.50;;;;;;5087945;28;20538;-77
2022/05/09 03:23:28;;;;;;;17.50;10.15;;;15.00;72.20;;;;;;5094152;28;20470;-78
2022/05/09 03:25:54;;;;;;;18.73;9.98;;;15.00;72.40;;;;;;5076846;28;20079;-78
2022/05/09 03:28:24;;;;;;;15.88;9.85;;;15.00;72.50;;;;;;5073732;28;20028;-77
2022/05/09 03:30:52;;;;;;;18.52;9.70;;;14.90;72.80;;;;;;5085089;28;20059;-79
2022/05/09 03:33:20;;;;;;;19.05;9.38;;;14.90;73.00;;;;;;5092811;28;20046;-77
2022/05/09 03:35:46;;;;;;;16.75;10.48;;;14.90;72.70;;;;;;5073810;28;20695;-79
2022/05/09 03:38:12;;;;;;;13.57;9.13;;;14.90;72.80;;;;;;5072483;28;20067;-78
2022/05/09 03:40:38;;;;;;;15.70;10.05;;;14.80;73.20;;;;;;5073852;28;20028;-78
2022/05/09 03:43:05;;;;;;;15.32;10.23;;;14.80;72.80;;;;;;5073516;28;20075;-78
2022/05/09 03:45:31;;;;;;;16.40;9.50;;;14.80;72.90;;;;;;5083951;28;20024;-78
2022/05/09 03:47:57;;;;;;;17.70;10.35;;;14.80;72.80;;;;;;5092321;28;20081;-78
2022/05/09 03:50:23;;;;;;;16.77;10.35;;;14.90;72.70;;;;;;5093635;28;20020;-78
2022/05/09 03:52:48;;;;;;;18.83;10.23;;;14.80;72.70;;;;;;5093866;28;20036;-78
2022/05/09 03:55:14;;;;;;;15.43;9.50;;;14.80;72.50;;;;;;5092644;28;20028;-78
2022/05/09 03:57:47;;;;;;;16.52;10.00;;;14.80;72.70;;;;;;5093648;28;20028;-78
2022/05/09 04:00:14;;;;;;;14.13;9.63;;;14.80;72.40;;;;;;5084713;28;20185;-78
2022/05/09 04:02:41;;;;;;;17.35;10.02;;;14.80;72.60;;;;;;5073344;28;20039;-78
2022/05/09 04:05:08;;;;;;;17.80;10.13;;;14.80;72.60;;;;;;5073820;28;20043;-78
2022/05/09 04:07:34;;;;;;;17.20;9.93;;;14.70;72.70;;;;;;5081509;28;20028;-78
2022/05/09 04:10:00;;;;;;;16.95;10.57;;;14.70;72.70;;;;;;5093445;28;20081;-78
2022/05/09 04:12:25;;;;;;;16.50;10.13;;;14.70;73.20;;;;;;5093483;28;20428;-78
2022/05/09 04:17:53;;;;;;;16.90;10.10;;;14.60;73.30;;;;;;5070529;28;20479;-78
2022/05/09 04:20:18;;;;;;;17.63;9.95;;;14.60;73.40;;;;;;5072183;28;20105;-78
2022/05/09 04:22:47;;;;;;;17.25;10.13;;;14.60;72.80;;;;;;5075809;28;20032;-78
2022/05/09 04:25:15;;;;;;;17.58;10.05;;;14.60;73.00;;;;;;5073067;28;20028;-78
2022/05/09 04:27:41;;;;;;;18.60;9.88;;;14.50;72.70;;;;;;5072865;28;20024;-78
2022/05/09 04:30:09;;;;;;;16.27;9.48;;;14.50;72.90;;;;;;5072762;28;20032;-78
2022/05/09 04:32:35;;;;;;;18.05;10.05;;;14.50;72.60;;;;;;5071513;28;20136;-78
2022/05/09 04:35:01;;;;;;;17.52;9.73;;;14.40;72.30;;;;;;5073441;28;20024;-79
2022/05/09 04:37:27;;;;;;;12.60;8.90;;;14.40;72.20;;;;;;5077023;28;20039;-78
2022/05/09 04:39:54;;;;;;;18.45;10.35;;;14.30;72.40;;;;;;5075292;28;20057;-78
2022/05/09 04:42:20;;;;;;;15.95;10.23;;;14.30;72.70;;;;;;5094365;28;20467;-78
2022/05/09 04:44:46;;;;;;;14.27;9.00;;;14.30;72.50;;;;;;5097260;28;20387;-79
2022/05/09 04:47:13;;;;;;;14.20;9.32;;;14.30;72.50;;;;;;5097255;28;20048;-80
2022/05/09 04:49:39;;;;;;;17.35;9.30;;;14.30;72.50;;;;;;5082150;28;20036;-79
2022/05/09 04:52:05;;;;;;;16.40;10.18;;;14.30;72.50;;;;;;5093843;28;20500;-79
2022/05/09 04:54:31;;;;;;;16.65;10.02;;;14.30;72.30;;;;;;5085854;28;20020;-78
2022/05/09 04:56:56;;;;;;;16.70;8.95;;;14.20;72.40;;;;;;5086663;28;20110;-78
2022/05/09 04:59:22;;;;;;;15.30;9.85;;;14.20;72.70;;;;;;5086684;28;20293;-79
2022/05/09 05:01:48;;;;;;;15.63;9.60;;;14.20;72.70;;;;;;5085077;28;20111;-78
2022/05/09 05:04:16;;;;;;;15.40;9.35;;;14.20;72.70;;;;;;5088516;28;20025;-77
2022/05/09 05:06:41;;;;;;;16.88;9.85;;;14.20;72.50;;;;;;5084917;28;20565;-77
2022/05/09 05:09:07;;;;;;;16.77;10.23;;;14.30;72.70;;;;;;5085401;28;20063;-77
2022/05/09 05:11:33;;;;;;;17.02;9.32;;;14.30;72.30;;;;;;5086443;28;20035;-76
2022/05/09 05:13:58;;;;;;;19.85;10.57;;;14.30;72.40;;;;;;5083124;28;20043;-78
2022/05/09 05:16:59;;;;;;;14.10;8.93;;;14.20;72.40;;;;;;5076400;28;20486;-77
2022/05/09 05:19:09;;;;;;;16.58;9.13;;;14.20;72.90;;;;;;5079521;28;20112;-78
2022/05/09 05:21:35;;;;;;;13.85;8.98;;;14.20;72.90;;;;;;5084668;28;20449;-77
2022/05/09 05:24:01;;;;;;;18.85;10.48;;;14.20;73.20;;;;;;5076210;28;20020;-77
2022/05/09 05:26:26;;;;;;;15.68;10.00;;;14.20;73.30;;;;;;5076041;28;20060;-77
2022/05/09 05:28:52;;;;;;;17.05;9.70;;;14.20;73.20;;;;;;5082967;28;20148;-78
2022/05/09 05:31:18;;;;;;;18.48;9.48;;;14.30;73.10;;;;;;5095447;28;20121;-78
2022/05/09 05:33:45;;;;;;;19.05;10.80;;;14.30;73.10;;;;;;5096315;28;20069;-78
2022/05/09 05:36:11;;;;;;;20.00;11.52;;;14.40;73.10;;;;;;5094835;28;20036;-78
2022/05/09 05:38:37;;;;;;;17.83;10.88;;;14.40;73.30;;;;;;5076974;28;20028;-78
2022/05/09 05:41:03;;;;;;;17.92;10.15;;;14.60;73.30;;;;;;5074976;28;20032;-78
2022/05/09 05:43:28;;;;;;;19.00;10.68;;;14.60;73.50;;;;;;5075769;28;20025;-79
2022/05/09 05:45:57;;;;;;;17.73;10.68;;;14.60;73.40;;;;;;5074541;28;20068;-79
2022/05/09 05:48:24;;;;;;;17.10;11.65;;;14.70;73.60;;;;;;5073600;28;20047;-79
2022/05/09 05:50:52;;;;;;;19.42;10.27;;;14.70;73.60;;;;;;5075776;28;20514;-78
2022/05/09 05:53:18;;;;;;;18.92;11.13;;;14.80;73.20;;;;;;5091888;28;20036;-77
2022/05/09 05:55:44;;;;;;;17.75;10.73;;;14.80;73.20;;;;;;5075808;28;20036;-78
2022/05/09 05:58:10;;;;;;;17.15;10.18;;;14.90;73.40;;;;;;5075500;28;20036;-77
2022/05/09 06:00:36;;;;;;;14.48;7.07;;;15.00;73.20;;;;;;5080105;28;20032;-77
2022/05/09 06:03:02;;;;;;;21.27;11.57;;;14.90;73.20;;;;;;5097858;28;20053;-78
2022/05/09 06:05:28;;;;;;;15.90;10.30;;;15.00;73.40;;;;;;5116239;28;20028;-79
2022/05/09 06:07:55;;;;;;;16.05;10.15;;;15.00;73.50;;;;;;5101463;28;20021;-76
2022/05/09 06:10:22;;;;;;;16.02;10.60;;;15.00;73.60;;;;;;5084179;28;20032;-76
2022/05/09 06:12:48;;;;;;;20.75;9.73;;;15.10;73.60;;;;;;5085736;28;20023;-76
2022/05/09 06:15:25;;;;;;;21.05;10.77;;;15.10;73.20;;;;;;5082675;28;20033;-76
2022/05/09 06:17:53;;;;;;;13.23;8.75;;;15.20;73.30;;;;;;5083219;28;20419;-76
2022/05/09 06:20:21;;;;;;;16.83;8.95;;;15.20;72.90;;;;;;5080396;28;20120;-77
2022/05/09 06:22:47;;;;;;;16.33;10.05;;;15.30;72.60;;;;;;5075230;28;20048;-76
2022/05/09 06:25:15;;;;;;;14.80;9.80;;;15.30;72.90;;;;;;5075204;28;20400;-77
2022/05/09 06:27:41;;;;;;;17.80;10.02;;;15.30;72.60;;;;;;5075435;28;20728;-76
2022/05/09 06:30:09;;;;;;;14.43;9.07;;;15.40;72.70;;;;;;5076921;28;20115;-76
2022/05/09 06:32:35;;;;;;;24.30;11.25;;;15.50;72.40;;;;;;5086392;28;20062;-75
2022/05/09 06:35:05;;;;;;;16.20;10.18;;;15.60;72.20;;;;;;5093843;28;20032;-76
2022/05/09 06:37:33;;;;;;;17.87;8.87;;;15.80;72.10;;;;;;5093780;28;20114;-76
2022/05/09 06:39:59;;;;;;;17.92;10.90;;;15.70;71.70;;;;;;5087949;28;20800;-77
2022/05/09 06:42:25;;;;;;;15.93;10.90;;;15.70;71.70;;;;;;5083344;28;20059;-76
2022/05/09 06:44:51;;;;;;;18.65;9.60;;;15.60;71.90;;;;;;5082233;28;20548;-77
2022/05/09 06:47:17;;;;;;;15.00;8.65;;;15.70;72.10;;;;;;5087429;28;20615;-77
2022/05/09 06:49:42;;;;;;;16.90;9.57;;;15.80;72.00;;;;;;5085425;28;20032;-76
2022/05/09 06:52:08;;;;;;;17.10;10.75;;;15.90;71.30;;;;;;5084215;28;20025;-76
2022/05/09 06:54:34;;;;;;;14.20;9.10;;;16.00;71.20;;;;;;5081621;28;20082;-76
2022/05/09 06:56:59;;;;;;;14.32;8.57;;;16.10;70.90;;;;;;5084260;28;20027;-76
2022/05/09 06:59:25;;;;;;;17.77;9.77;;;16.10;70.80;;;;;;5081306;28;20050;-77
2022/05/09 07:01:51;;;;;;;21.63;10.80;;;16.30;70.50;;;;;;5084871;28;20032;-77
2022/05/09 07:04:17;;;;;;;13.00;9.05;;;16.30;70.70;;;;;;5102605;28;20054;-79
2022/05/09 07:06:43;;;;;;;16.13;10.05;;;16.50;70.20;;;;;;5084403;28;20077;-77
2022/05/09 07:09:10;;;;;;;21.35;12.20;;;16.80;70.00;;;;;;5081503;28;20039;-78
2022/05/09 07:11:37;;;;;;;17.15;9.25;;;17.10;69.10;;;;;;5096899;28;20107;-78
2022/05/09 07:14:03;;;;;;;17.00;8.63;;;18.70;65.00;;;;;;5082964;28;20024;-78
2022/05/09 07:16:28;;;;;;;14.68;9.43;;;20.20;59.30;;;;;;5083818;28;20024;-78
2022/05/09 07:18:54;;;;;;;11.52;8.15;;;22.30;54.00;;;;;;5080409;28;20044;-79
2022/05/09 07:21:20;;;;;;;12.90;9.18;;;24.60;47.50;;;;;;5083573;28;20460;-79
2022/05/09 07:23:45;;;;;;;15.40;9.75;;;26.30;44.10;;;;;;5081804;28;20059;-79
2022/05/09 07:26:11;;;;;;;11.30;8.57;;;27.60;40.90;;;;;;5083402;28;20024;-80
2022/05/09 07:28:38;;;;;;;12.05;8.77;;;28.90;37.80;;;;;;5080253;28;20021;-79
2022/05/09 07:31:04;;;;;;;11.98;9.43;;;29.20;37.80;;;;;;5081101;28;20047;-80
2022/05/09 07:33:30;;;;;;;11.35;8.65;;;29.70;36.50;;;;;;5078981;28;20021;-80
2022/05/09 07:35:57;;;;;;;12.93;9.10;;;30.10;35.00;;;;;;5075238;28;20044;-79
2022/05/09 07:38:23;;;;;;;12.40;8.75;;;30.70;34.80;;;;;;5077482;28;20055;-79
2022/05/09 07:40:49;;;;;;;12.75;8.95;;;31.10;33.40;;;;;;5073404;28;20024;-80
2022/05/09 07:43:21;;;;;;;14.68;9.48;;;31.80;33.70;;;;;;5083073;28;20031;-80
2022/05/09 07:45:50;;;;;;;11.77;8.60;;;32.50;31.60;;;;;;5080492;28;20016;-80
2022/05/09 07:48:16;;;;;;;13.35;9.80;;;33.00;31.30;;;;;;5083719;28;20058;-81
2022/05/09 07:50:43;;;;;;;11.50;8.77;;;32.80;30.40;;;;;;5084107;28;20020;-80
2022/05/09 07:53:12;;;;;;;16.73;9.23;;;32.90;31.10;;;;;;5087895;28;20028;-80
2022/05/09 07:55:39;;;;;;;14.60;9.90;;;33.00;30.20;;;;;;5082785;28;20020;-81
2022/05/09 07:58:05;;;;;;;10.00;9.00;;;33.80;29.50;;;;;;5081595;28;20466;-81
2022/05/09 08:00:31;;;;;;;13.07;9.45;;;33.60;29.20;;;;;;5077799;28;20564;-81
2022/05/09 08:02:56;;;;;;;9.48;8.32;;;33.70;28.80;;;;;;5086953;28;20021;-80
2022/05/09 08:05:22;;;;;;;13.40;9.52;;;33.40;29.60;;;;;;5093759;28;20017;-80
2022/05/09 08:07:49;;;;;;;12.35;9.60;;;33.80;28.60;;;;;;5086332;28;20079;-80
2022/05/09 08:10:16;;;;;;;9.85;8.52;;;33.80;29.40;;;;;;5072696;28;20108;-80
2022/05/09 08:12:42;;;;;;;12.55;9.35;;;33.90;29.10;;;;;;5105891;28;20521;-80
2022/05/09 08:15:11;;;;;;;11.35;9.75;;;34.40;28.90;;;;;;5110387;28;20026;-80
2022/05/09 08:17:37;;;;;;;;;;;34.90;27.50;;;;;;5073243;28;20453;-80
2022/05/09 08:20:03;;;;;;;18.35;9.25;;;35.10;27.20;;;;;;5083516;28;20018;-80
2022/05/09 08:22:31;;;;;;;13.20;9.50;;;35.20;27.90;;;;;;5086640;28;20047;-80
2022/05/09 08:25:02;;;;;;;10.93;8.25;;;34.80;28.30;;;;;;5082160;28;20111;-80
2022/05/09 08:27:28;;;;;;;10.48;8.05;;;35.00;28.30;;;;;;5082043;28;20029;-80
2022/05/09 08:29:56;;;;;;;12.57;9.77;;;35.60;27.10;;;;;;5080448;28;20093;-80
2022/05/09 08:32:23;;;;;;;11.23;9.18;;;34.80;27.50;;;;;;5081059;28;20020;-80
2022/05/09 08:34:51;;;;;;;10.55;8.05;;;34.60;27.80;;;;;;5080737;28;20483;-80
2022/05/09 08:37:20;;;;;;;10.73;8.87;;;34.50;28.70;;;;;;5083403;28;20016;-80
2022/05/09 08:39:47;;;;;;;10.38;8.52;;;34.60;28.20;;;;;;5079630;28;20068;-80
2022/05/09 08:42:24;;;;;;;12.27;8.82;;;34.60;28.40;;;;;;5081828;28;20035;-80
2022/05/09 08:45:22;;;;;;;11.00;8.52;;;34.70;28.60;;;;;;5076118;28;20051;-79
2022/05/09 08:48:14;;;;;;;13.25;9.43;;;34.30;29.00;;;;;;5080141;28;20020;-80
2022/05/09 08:50:56;;;;;;;10.70;7.82;;;34.80;28.00;;;;;;5082489;28;20039;-80
2022/05/09 08:53:24;;;;;;;10.38;8.55;;;34.50;28.60;;;;;;5092007;28;20024;-80
2022/05/09 08:55:52;;;;;;;10.55;7.80;;;34.70;27.90;;;;;;5071499;28;20542;-81
2022/05/09 08:58:37;;;;;;;12.73;8.98;;;34.40;28.10;;;;;;5083034;28;20086;-80
2022/05/09 09:01:26;;;;;;;13.48;8.43;;;34.20;28.30;;;;;;5086464;28;20028;-80
2022/05/09 09:03:58;;;;;;;;;;;34.10;28.80;;;;;;5089643;28;20053;-80
2022/05/09 09:06:57;;;;;;;11.15;8.75;;;34.30;28.90;;;;;;5113263;28;19930;-80
2022/05/09 09:10:02;;;;;;;11.40;8.35;;;34.40;28.00;;;;;;5077755;28;20033;-80
2022/05/09 09:12:40;;;;;;;12.07;8.93;;;34.60;28.40;;;;;;5075848;28;20538;-81
2022/05/09 09:15:17;;;;;;;10.48;8.43;;;34.40;28.20;;;;;;5072579;28;20025;-80
2022/05/09 09:18:10;;;;;;;10.05;8.32;;;34.40;29.00;;;;;;5075508;28;20020;-80
2022/05/09 09:20:42;;;;;;;11.55;7.30;;;35.20;28.00;;;;;;5082498;28;20123;-80
2022/05/09 09:23:53;;;;;;;13.18;7.78;;;35.40;28.10;;;;;;5075385;28;20040;-80
2022/05/09 09:26:49;;;;;;;10.95;8.82;;;35.60;27.00;;;;;;5033304;28;20044;-80
2022/05/09 09:29:28;;;;;;;10.07;7.88;;;35.30;27.10;;;;;;5018354;28;20071;-79
2022/05/09 09:32:08;;;;;;;8.65;6.82;;;35.20;27.80;;;;;;5083274;28;20035;-79
2022/05/09 09:34:46;;;;;;;11.05;8.25;;;35.00;28.00;;;;;;5095474;28;20024;-80
2022/05/09 09:37:19;;;;;;;10.70;7.57;;;34.90;27.20;;;;;;5086767;28;20461;-79
2022/05/09 09:39:45;;;;;;;11.05;8.13;;;34.80;28.70;;;;;;5082278;28;20096;-79
2022/05/09 09:42:11;;;;;;;10.25;7.35;;;34.60;28.00;;;;;;5094452;28;20640;-79
2022/05/09 09:44:43;;;;;;;8.32;6.28;;;35.10;28.10;;;;;;5093401;28;20032;-79
2022/05/09 09:47:25;;;;;;;9.50;6.90;;;35.10;26.00;;;;;;5083696;28;20035;-79
2022/05/09 09:50:16;;;;;;;9.07;7.30;;;35.30;27.60;;;;;;5095756;28;20036;-79
2022/05/09 09:52:50;;;;;;;12.52;7.13;;;34.70;28.40;;;;;;5092538;28;20032;-79
2022/05/09 09:55:38;;;;;;;8.65;7.38;;;34.50;27.70;;;;;;5092860;28;20093;-79
2022/05/09 09:58:27;;;;;;;7.55;6.38;;;34.90;28.60;;;;;;5109760;28;20051;-78
2022/05/09 10:01:10;;;;;;;7.57;6.28;;;35.10;28.00;;;;;;5102825;28;20032;-78
2022/05/09 10:03:40;;;;;;;8.27;6.25;;;34.80;26.70;;;;;;5088564;28;20026;-78
2022/05/09 10:06:14;;;;;;;8.05;6.35;;;34.20;27.20;;;;;;5101710;28;20036;-78
2022/05/09 10:08:41;;;;;;;10.75;5.68;;;34.20;28.40;;;;;;5075572;28;20020;-78
2022/05/09 10:11:12;;;;;;;6.38;5.05;;;34.60;27.40;;;;;;5080980;28;20028;-78
2022/05/09 10:13:40;;;;;;;7.30;5.28;;;34.50;26.60;;;;;;5094359;28;20024;-79
2022/05/09 10:16:21;;;;;;;7.30;5.18;;;34.50;26.10;;;;;;5077674;28;20062;-79
2022/05/09 10:18:47;;;;;;;9.57;6.55;;;34.40;27.60;;;;;;5080525;28;20040;-78
2022/05/09 10:24:47;;;;;;;8.88;5.75;;;34.50;28.20;;;;;;5094223;28;20051;-78
2022/05/09 10:26:53;;;;;;;5.72;4.68;;;34.30;26.80;;;;;;5083246;28;20078;-79
2022/05/09 10:29:21;;;;;;;7.00;5.13;;;33.50;27.70;;;;;;5075046;28;20025;-78
2022/05/09 10:31:53;;;;;;;7.30;4.65;;;32.90;27.80;;;;;;5075216;28;20028;-78
2022/05/09 10:34:50;;;;;;;8.13;5.32;;;32.10;28.20;;;;;;5073527;28;20078;-78
2022/05/09 10:37:26;;;;;;;6.18;4.18;;;30.90;30.90;;;;;;5068885;28;20047;-79
2022/05/09 10:40:07;;;;;;;6.72;3.75;;;30.60;31.90;;;;;;5074197;28;20039;-78
2022/05/09 10:42:50;;;;;;;6.45;4.63;;;29.80;30.90;;;;;;5072831;28;20082;-78
2022/05/09 10:45:20;;;;;;;6.93;4.68;;;29.30;33.50;;;;;;5074642;28;20020;-78
2022/05/09 10:47:57;;;;;;;8.65;4.38;;;29.30;34.30;;;;;;5090914;28;20032;-78
2022/05/09 10:50:29;;;;;;;6.78;4.97;;;29.40;33.80;;;;;;5094871;28;20021;-79
2022/05/09 10:53:17;;;;;;;9.13;3.60;;;29.20;34.40;;;;;;5089143;28;20047;-81
2022/05/09 10:55:51;;;;;;;10.05;4.78;;;28.90;33.20;;;;;;5074591;28;20024;-81
2022/05/09 10:58:25;;;;;;;6.10;4.10;;;28.80;32.30;;;;;;5080133;28;20080;-81
2022/05/09 11:01:07;;;;;;;5.10;3.20;;;28.80;32.00;;;;;;5088829;28;20517;-81
2022/05/09 11:03:41;;;;;;;8.30;4.07;;;28.70;32.40;;;;;;5085233;28;20028;-83
2022/05/09 11:06:38;;;;;;;8.82;4.18;;;28.80;33.80;;;;;;5113678;28;20055;-78
2022/05/09 11:09:37;;;;;;;6.68;4.38;;;28.50;35.00;;;;;;5100106;28;20028;-78
2022/05/09 11:12:21;;;;;;;7.97;4.80;;;28.80;35.10;;;;;;5073543;28;20115;-78
2022/05/09 11:14:52;;;;;;;8.13;4.53;;;28.70;34.10;;;;;;5074051;28;20055;-77
2022/05/09 11:17:41;;;;;;;6.57;3.83;;;28.30;34.30;;;;;;5073571;28;20033;-78
2022/05/09 11:20:10;;;;;;;6.07;4.23;;;28.40;35.00;;;;;;5051533;28;20570;-78
2022/05/09 11:22:59;;;;;;;7.78;4.25;;;28.40;34.60;;;;;;5114517;28;20119;-78
2022/05/09 11:25:58;;;;;;;6.28;4.10;;;28.50;34.80;;;;;;5105922;28;20047;-78
2022/05/09 11:28:42;;;;;;;5.85;3.75;;;28.60;34.60;;;;;;5086297;28;20039;-81
2022/05/09 11:31:27;;;;;;;4.38;3.42;;;28.40;34.40;;;;;;5073849;28;20029;-79
2022/05/09 11:34:14;;;;;;;5.10;3.55;;;28.30;33.70;;;;;;5078047;28;20481;-79
2022/05/09 11:37:04;;;;;;;5.00;3.05;;;28.50;35.10;;;;;;5073543;28;20376;-79
2022/05/09 11:40:09;;;;;;;7.30;3.28;;;28.70;33.10;;;;;;5073614;28;20040;-79
2022/05/09 11:46:21;;;;;;;5.47;3.30;;;28.50;32.40;;;;;;5074203;28;20099;-79
2022/05/09 11:49:11;;;;;;;4.53;3.33;;;28.60;33.60;;;;;;5093650;28;20053;-79
2022/05/09 11:51:43;;;;;;;6.07;3.00;;;28.60;33.70;;;;;;5092327;28;20035;-79
2022/05/09 11:54:23;;;;;;;4.65;2.70;;;28.80;34.20;;;;;;5087850;28;20047;-79
2022/05/09 11:57:11;;;;;;;6.13;3.42;;;28.90;32.50;;;;;;5073242;28;20028;-79
2022/05/09 11:59:47;;;;;;;4.80;3.13;;;28.60;32.80;;;;;;5087081;28;20024;-80
2022/05/09 12:02:13;;;;;;;5.13;3.53;;;28.60;33.50;;;;;;5081465;28;20028;-80
2022/05/09 12:04:47;;;;;;;4.45;2.72;;;28.40;33.90;;;;;;5083897;28;20024;-80
2022/05/09 12:07:22;;;;;;;4.38;2.40;;;28.40;33.20;;;;;;5084140;28;20024;-80
2022/05/09 12:09:54;;;;;;;4.75;2.60;;;28.30;33.30;;;;;;5082070;28;20077;-80
2022/05/09 12:12:41;;;;;;;5.70;3.05;;;28.10;32.80;;;;;;5079391;28;20575;-80
2022/05/09 12:15:29;;;;;;;7.85;2.83;;;28.30;34.30;;;;;;5082085;28;20028;-80
2022/05/09 12:17:57;;;;;;;5.65;2.83;;;28.40;31.90;;;;;;5081039;28;20059;-80
2022/05/09 12:20:29;;;;;;;4.40;2.60;;;28.60;33.20;;;;;;5081376;28;20036;-80
2022/05/09 12:23:05;;;;;;;8.15;3.13;;;28.40;32.80;;;;;;5082207;28;20028;-77
2022/05/09 12:25:34;;;;;;;7.35;3.17;;;28.10;33.10;;;;;;5082405;28;20051;-77
2022/05/09 12:28:18;;;;;;;5.38;3.10;;;28.00;33.20;;;;;;5079286;28;20020;-77
2022/05/09 12:31:21;;;;;;;4.93;3.00;;;27.90;32.20;;;;;;5079685;28;20482;-77
2022/05/09 12:33:47;;;;;;;4.43;2.78;;;28.00;32.70;;;;;;5081130;28;20020;-77
2022/05/09 12:36:23;;;;;;;6.90;2.78;;;28.10;32.60;;;;;;5080709;28;20029;-77
2022/05/09 12:38:51;;;;;;;4.47;2.55;;;28.30;33.20;;;;;;5081066;28;20028;-77
2022/05/09 12:41:25;;;;;;;3.83;2.90;;;28.60;31.20;;;;;;5079810;28;20028;-78
2022/05/09 12:43:57;;;;;;;6.28;1.83;;;28.50;30.70;;;;;;5080149;28;20036;-77
2022/05/09 12:46:33;;;;;;;4.57;2.05;;;28.70;31.10;;;;;;5080457;28;20024;-77
2022/05/09 12:49:02;;;;;;;4.38;2.40;;;28.80;32.00;;;;;;5082380;28;20021;-77
2022/05/09 12:51:30;;;;;;;6.20;2.40;;;28.60;29.80;;;;;;5081955;28;20517;-77
2022/05/09 12:53:58;;;;;;;8.52;2.40;;;28.30;30.80;;;;;;5081961;28;20036;-76
2022/05/09 12:56:27;;;;;;;3.78;2.13;;;28.20;30.40;;;;;;5083138;28;20021;-77
2022/05/09 12:59:02;;;;;;;4.47;2.90;;;27.80;31.50;;;;;;5085486;28;20052;-80
2022/05/09 13:01:28;;;;;;;4.85;2.53;;;27.70;31.70;;;;;;5083611;28;20317;-76
2022/05/09 13:03:58;;;;;;;4.65;2.47;;;27.70;31.40;;;;;;5088705;28;20063;-77
2022/05/09 13:06:29;;;;;;;4.72;2.55;;;28.00;32.80;;;;;;5085646;28;20054;-76
2022/05/09 13:08:56;;;;;;;4.65;2.42;;;28.30;33.00;;;;;;5082893;28;20039;-77
2022/05/09 13:11:32;;;;;;;3.45;2.20;;;28.40;33.00;;;;;;5085104;28;20083;-78